Time;durP1;ratioP1;P1;durP2;ratioP2;P2;SDS_P1;SDS_P2;PMS_P1;PMS_P2;Temp;Humidity;BMP_temperature;BMP_pressure;BME280_temperature;BME280_humidity;BME280_pressure;Samples;Min_cycle;Max_cycle;Signal;HPM_P1;HPM_P2
2022/07/13 00:01:37;;;;;;;7.32;6.53;;;;;;;;;;5095001;28;20099;-68
2022/07/13 00:04:04;;;;;;;7.32;6.60;;;;;;;;;;5093632;28;20585;-68
2022/07/13 00:06:30;;;;;;;9.27;6.40;;;;;;;;;;5083593;28;20143;-69
2022/07/13 00:08:57;;;;;;;7.40;6.63;;;;;;;;;;5086894;28;20095;-68
2022/07/13 00:11:23;;;;;;;7.25;6.53;;;;;;;;;;5094402;28;20098;-68
2022/07/13 00:13:49;;;;;;;9.95;7.68;;;;;;;;;;5091760;28;20418;-68
2022/07/13 00:16:16;;;;;;;8.18;7.05;;;;;;;;;;5093821;28;20053;-68
2022/07/13 00:18:42;;;;;;;8.05;6.75;;;;;;;;;;5090544;28;20049;-68
2022/07/13 00:21:08;;;;;;;8.40;6.65;;;;;;;;;;5093669;28;20547;-68
2022/07/13 00:23:35;;;;;;;7.60;6.10;;;;;;;;;;5093534;28;20110;-68
2022/07/13 00:26:01;;;;;;;7.88;7.07;;;;;;;;;;5087808;28;20429;-68
2022/07/13 00:28:27;;;;;;;9.13;7.07;;;;;;;;;;5090715;28;20048;-68
2022/07/13 00:30:54;;;;;;;7.65;6.95;;;;;;;;;;5073706;28;20064;-68
2022/07/13 00:33:20;;;;;;;9.20;6.72;;;;;;;;;;5074512;28;20493;-69
2022/07/13 00:35:47;;;;;;;7.53;6.53;;;;;;;;;;5095444;28;20058;-68
2022/07/13 00:38:13;;;;;;;9.48;6.88;;;;;;;;;;5088660;27;20048;-68
2022/07/13 00:40:39;;;;;;;7.72;6.63;;;;;;;;;;5095183;28;21010;-68
2022/07/13 00:43:06;;;;;;;9.15;6.13;;;;;;;;;;5081131;28;20143;-68
2022/07/13 00:45:33;;;;;;;7.38;6.55;;;;;;;;;;5092727;28;20504;-68
2022/07/13 00:47:59;;;;;;;7.28;6.53;;;;;;;;;;5092510;28;20052;-68
2022/07/13 00:50:25;;;;;;;8.82;6.65;;;;;;;;;;5093615;28;20138;-68
2022/07/13 00:52:52;;;;;;;6.30;5.70;;;;;;;;;;5093370;28;20154;-68
2022/07/13 00:55:19;;;;;;;6.82;6.18;;;;;;;;;;5090600;28;20073;-68
2022/07/13 00:57:45;;;;;;;7.10;6.30;;;;;;;;;;5092740;28;20427;-68
2022/07/13 01:00:12;;;;;;;7.38;5.95;;;;;;;;;;5092730;28;20091;-68
2022/07/13 01:02:39;;;;;;;8.55;6.57;;;;;;;;;;5109687;28;20147;-68
2022/07/13 01:05:06;;;;;;;6.90;5.90;;;;;;;;;;5096909;27;20102;-68
2022/07/13 01:07:33;;;;;;;7.25;6.22;;;;;;;;;;5091981;28;20067;-68
2022/07/13 01:10:00;;;;;;;6.85;5.55;;;;;;;;;;5100950;28;20106;-68
2022/07/13 01:12:28;;;;;;;6.07;5.38;;;;;;;;;;5095242;27;20048;-68
2022/07/13 01:14:56;;;;;;;11.00;6.00;;;;;;;;;;5093755;28;20052;-67
2022/07/13 01:17:22;;;;;;;7.70;5.82;;;;;;;;;;5093224;28;20048;-68
2022/07/13 01:19:50;;;;;;;8.50;5.88;;;;;;;;;;5092997;28;20060;-68
2022/07/13 01:22:20;;;;;;;6.47;5.88;;;;;;;;;;5092688;28;20056;-68
2022/07/13 01:24:47;;;;;;;7.60;5.57;;;;;;;;;;5088766;28;20096;-68
2022/07/13 01:27:13;;;;;;;7.65;5.60;;;;;;;;;;5072526;28;20511;-67
2022/07/13 01:29:40;;;;;;;10.02;6.90;;;;;;;;;;5073166;28;20055;-67
2022/07/13 01:32:06;;;;;;;7.35;5.95;;;;;;;;;;5089027;28;20054;-68
2022/07/13 01:34:32;;;;;;;9.65;6.68;;;;;;;;;;5092471;28;20052;-68
2022/07/13 01:36:59;;;;;;;7.22;6.50;;;;;;;;;;5092530;28;20055;-68
2022/07/13 01:39:25;;;;;;;7.80;7.00;;;;;;;;;;5103720;28;20143;-67
2022/07/13 01:41:52;;;;;;;7.75;6.93;;;;;;;;;;5097229;28;20471;-68
2022/07/13 01:44:18;;;;;;;11.88;7.47;;;;;;;;;;5093178;28;20049;-68
2022/07/13 01:46:45;;;;;;;8.15;7.35;;;;;;;;;;5092230;28;20052;-67
2022/07/13 01:49:11;;;;;;;7.22;6.53;;;;;;;;;;5093220;28;20053;-68
2022/07/13 01:51:38;;;;;;;8.23;7.40;;;;;;;;;;5090855;28;20438;-67
2022/07/13 01:54:04;;;;;;;8.90;7.13;;;;;;;;;;5072582;28;20087;-67
2022/07/13 01:56:32;;;;;;;8.90;8.10;;;;;;;;;;5082770;28;20492;-68
2022/07/13 01:58:59;;;;;;;9.75;8.15;;;;;;;;;;5087887;28;20048;-68
2022/07/13 02:01:25;;;;;;;9.23;8.32;;;;;;;;;;5095024;28;20135;-68
2022/07/13 02:03:52;;;;;;;8.48;7.70;;;;;;;;;;5091678;28;20578;-68
2022/07/13 02:06:19;;;;;;;9.80;8.30;;;;;;;;;;5091623;28;20057;-68
2022/07/13 02:08:45;;;;;;;9.32;8.13;;;;;;;;;;5090656;28;20083;-68
2022/07/13 02:11:18;;;;;;;14.00;8.40;;;;;;;;;;5084655;28;20417;-68
2022/07/13 02:13:45;;;;;;;10.15;8.48;;;;;;;;;;5090393;28;20057;-68
2022/07/13 02:16:12;;;;;;;11.23;8.27;;;;;;;;;;5091622;28;20064;-68
2022/07/13 02:18:38;;;;;;;9.80;8.18;;;;;;;;;;5090310;28;20052;-68
2022/07/13 02:21:05;;;;;;;8.65;7.75;;;;;;;;;;5092040;28;20057;-68
2022/07/13 02:23:31;;;;;;;13.10;8.25;;;;;;;;;;5090495;28;20050;-68
2022/07/13 02:25:57;;;;;;;12.07;8.23;;;;;;;;;;5091361;28;20064;-68
2022/07/13 02:28:24;;;;;;;9.48;8.52;;;;;;;;;;5106368;27;20062;-68
2022/07/13 02:30:50;;;;;;;13.88;9.45;;;;;;;;;;5087388;28;20076;-68
2022/07/13 02:33:17;;;;;;;9.85;8.13;;;;;;;;;;5089254;28;20134;-68
2022/07/13 02:35:43;;;;;;;8.85;7.88;;;;;;;;;;5071349;28;20127;-67
2022/07/13 02:38:10;;;;;;;9.73;7.60;;;;;;;;;;5088490;28;20044;-68
2022/07/13 02:40:36;;;;;;;11.93;7.97;;;;;;;;;;5092210;28;20087;-68
2022/07/13 02:43:03;;;;;;;9.20;8.30;;;;;;;;;;5091020;28;20135;-68
2022/07/13 02:45:29;;;;;;;8.85;7.95;;;;;;;;;;5084710;28;20063;-68
2022/07/13 02:47:56;;;;;;;10.02;8.85;;;;;;;;;;5079741;28;20052;-68
2022/07/13 02:50:22;;;;;;;11.85;8.30;;;;;;;;;;5091383;28;20058;-68
2022/07/13 02:52:51;;;;;;;11.73;8.65;;;;;;;;;;5091758;28;20045;-68
2022/07/13 02:55:18;;;;;;;11.07;8.35;;;;;;;;;;5091067;28;20052;-68
2022/07/13 02:57:45;;;;;;;9.85;8.82;;;;;;;;;;5091132;28;20500;-68
2022/07/13 03:00:12;;;;;;;12.18;10.00;;;;;;;;;;5091399;28;20079;-68
2022/07/13 03:02:38;;;;;;;13.27;8.20;;;;;;;;;;5091218;28;20143;-68
2022/07/13 03:05:05;;;;;;;10.05;8.38;;;;;;;;;;5073899;28;20655;-68
2022/07/13 03:07:31;;;;;;;10.88;9.35;;;;;;;;;;5087350;28;20059;-68
2022/07/13 03:09:58;;;;;;;12.60;9.77;;;;;;;;;;5077883;28;20160;-67
2022/07/13 03:12:24;;;;;;;10.55;9.43;;;;;;;;;;5071824;28;20542;-68
2022/07/13 03:14:50;;;;;;;12.18;9.75;;;;;;;;;;5083922;28;20053;-68
2022/07/13 03:17:16;;;;;;;9.63;8.55;;;;;;;;;;5070819;28;20132;-68
2022/07/13 03:19:43;;;;;;;12.65;9.20;;;;;;;;;;5082548;28;20052;-69
2022/07/13 03:22:09;;;;;;;10.43;8.43;;;;;;;;;;5091868;28;20143;-68
2022/07/13 03:24:35;;;;;;;11.02;9.68;;;;;;;;;;5085064;27;20057;-68
2022/07/13 03:27:02;;;;;;;12.93;9.60;;;;;;;;;;5079623;28;20052;-68
2022/07/13 03:29:28;;;;;;;10.30;9.35;;;;;;;;;;5090810;28;20055;-68
2022/07/13 03:31:55;;;;;;;10.30;9.23;;;;;;;;;;5090818;28;20056;-68
2022/07/13 03:34:21;;;;;;;12.82;9.43;;;;;;;;;;5079298;28;20581;-68
2022/07/13 03:36:48;;;;;;;9.90;8.90;;;;;;;;;;5073295;28;20052;-69
2022/07/13 03:39:14;;;;;;;10.32;9.32;;;;;;;;;;5085303;28;20059;-68
2022/07/13 03:41:40;;;;;;;12.32;10.07;;;;;;;;;;5093841;28;20978;-68
2022/07/13 03:44:07;;;;;;;10.70;9.70;;;;;;;;;;5093403;28;20494;-68
2022/07/13 03:46:33;;;;;;;11.48;10.30;;;;;;;;;;5094370;28;20431;-68
2022/07/13 03:48:59;;;;;;;11.68;10.02;;;;;;;;;;5093711;28;20052;-68
2022/07/13 03:51:26;;;;;;;12.85;10.73;;;;;;;;;;5097889;28;20102;-69
2022/07/13 03:53:52;;;;;;;13.50;10.30;;;;;;;;;;5095956;28;20147;-68
2022/07/13 03:56:18;;;;;;;13.00;10.48;;;;;;;;;;5076123;28;21265;-69
2022/07/13 03:58:45;;;;;;;11.70;10.50;;;;;;;;;;5086917;28;20156;-68
2022/07/13 04:01:11;;;;;;;10.95;9.85;;;;;;;;;;5087513;28;20056;-69
2022/07/13 04:03:38;;;;;;;12.50;9.35;;;;;;;;;;5093337;28;20052;-69
2022/07/13 04:06:04;;;;;;;11.95;10.75;;;;;;;;;;5093835;28;20052;-68
2022/07/13 04:08:30;;;;;;;10.82;9.70;;;;;;;;;;5093544;28;20052;-68
2022/07/13 04:10:57;;;;;;;12.68;10.13;;;;;;;;;;5093853;28;20081;-68
2022/07/13 04:13:24;;;;;;;12.80;10.45;;;;;;;;;;5074558;28;20055;-68
2022/07/13 04:15:50;;;;;;;10.98;9.88;;;;;;;;;;5079199;28;20055;-68
2022/07/13 04:18:16;;;;;;;12.93;10.07;;;;;;;;;;5095283;28;20137;-69
2022/07/13 04:20:43;;;;;;;11.27;10.02;;;;;;;;;;5097172;27;20129;-69
2022/07/13 04:23:09;;;;;;;11.00;8.93;;;;;;;;;;5093284;28;20496;-69
2022/07/13 04:25:35;;;;;;;9.88;8.88;;;;;;;;;;5093703;28;20052;-68
2022/07/13 04:28:02;;;;;;;11.13;8.77;;;;;;;;;;5092169;28;20159;-69
2022/07/13 04:30:28;;;;;;;9.68;8.48;;;;;;;;;;5073311;28;20059;-69
2022/07/13 04:32:55;;;;;;;9.35;8.45;;;;;;;;;;5072294;28;20080;-69
2022/07/13 04:35:21;;;;;;;11.15;7.82;;;;;;;;;;5076813;28;20049;-69
2022/07/13 04:37:48;;;;;;;8.43;7.45;;;;;;;;;;5092569;28;20083;-69
2022/07/13 04:40:14;;;;;;;10.55;7.15;;;;;;;;;;5082180;28;20084;-68
2022/07/13 04:42:40;;;;;;;12.25;7.22;;;;;;;;;;5086234;28;20055;-69
2022/07/13 04:45:07;;;;;;;9.20;7.40;;;;;;;;;;5093103;28;20139;-69
2022/07/13 04:47:33;;;;;;;8.73;7.40;;;;;;;;;;5087981;28;20095;-68
2022/07/13 04:50:00;;;;;;;11.52;6.82;;;;;;;;;;5084466;28;20079;-68
2022/07/13 04:52:26;;;;;;;8.27;6.35;;;;;;;;;;5084806;28;20061;-68
2022/07/13 04:54:53;;;;;;;10.35;7.55;;;;;;;;;;5091603;28;20045;-68
2022/07/13 04:57:21;;;;;;;7.30;6.60;;;;;;;;;;5092874;28;20056;-68
2022/07/13 04:59:47;;;;;;;9.90;7.75;;;;;;;;;;5092523;28;20056;-68
2022/07/13 05:02:14;;;;;;;8.50;7.68;;;;;;;;;;5089869;28;20140;-68
2022/07/13 05:04:40;;;;;;;13.07;7.55;;;;;;;;;;5092898;28;20053;-68
2022/07/13 05:07:06;;;;;;;8.00;7.00;;;;;;;;;;5092226;28;20588;-68
2022/07/13 05:09:33;;;;;;;8.18;6.57;;;;;;;;;;5080496;28;20059;-68
2022/07/13 05:11:59;;;;;;;11.40;7.57;;;;;;;;;;5078548;28;20948;-68
2022/07/13 05:14:25;;;;;;;10.20;8.32;;;;;;;;;;5089327;28;20045;-68
2022/07/13 05:16:52;;;;;;;9.02;8.05;;;;;;;;;;5079304;28;20059;-68
2022/07/13 05:19:25;;;;;;;9.73;7.97;;;;;;;;;;5092016;28;20052;-68
2022/07/13 05:21:52;;;;;;;8.70;7.68;;;;;;;;;;5091276;28;20056;-68
2022/07/13 05:24:18;;;;;;;10.77;7.75;;;;;;;;;;5092651;28;20530;-68
2022/07/13 05:26:44;;;;;;;10.85;7.72;;;;;;;;;;5084839;28;20045;-68
2022/07/13 05:29:11;;;;;;;12.32;8.77;;;;;;;;;;5081308;28;20575;-68
2022/07/13 05:31:37;;;;;;;7.57;6.78;;;;;;;;;;5096442;28;20052;-68
2022/07/13 05:34:04;;;;;;;8.50;7.40;;;;;;;;;;5092922;28;20048;-68
2022/07/13 05:36:30;;;;;;;8.50;7.57;;;;;;;;;;5107962;28;20429;-68
2022/07/13 05:38:56;;;;;;;11.95;7.78;;;;;;;;;;5093277;28;20529;-68
2022/07/13 05:41:23;;;;;;;8.85;7.40;;;;;;;;;;5089771;28;20048;-68
2022/07/13 05:43:49;;;;;;;10.70;7.88;;;;;;;;;;5077595;28;20156;-68
2022/07/13 05:46:15;;;;;;;8.35;6.82;;;;;;;;;;5081610;28;20559;-69
2022/07/13 05:48:42;;;;;;;12.23;7.13;;;;;;;;;;5092056;28;20147;-67
2022/07/13 05:51:08;;;;;;;9.90;7.32;;;;;;;;;;5089992;28;20056;-68
2022/07/13 05:53:59;;;;;;;11.82;7.25;;;;;;;;;;5095020;28;20060;-68
2022/07/13 05:56:46;;;;;;;11.77;7.32;;;;;;;;;;5091154;28;20060;-67
2022/07/13 05:59:12;;;;;;;8.20;7.28;;;;;;;;;;5092018;28;20054;-68
2022/07/13 06:01:38;;;;;;;10.50;6.60;;;;;;;;;;5088567;28;20192;-67
2022/07/13 06:04:04;;;;;;;12.60;7.25;;;;;;;;;;5092892;28;20064;-67
2022/07/13 06:06:31;;;;;;;8.10;6.50;;;;;;;;;;5093689;27;20091;-68
2022/07/13 06:08:57;;;;;;;8.70;6.90;;;;;;;;;;5091602;28;20045;-70
2022/07/13 06:11:23;;;;;;;11.80;6.43;;;;;;;;;;5088152;28;20055;-68
2022/07/13 06:13:50;;;;;;;9.20;7.10;;;;;;;;;;5091608;28;20055;-68
2022/07/13 06:16:16;;;;;;;9.10;6.68;;;;;;;;;;5091942;28;20053;-69
2022/07/13 06:18:42;;;;;;;7.43;5.72;;;;;;;;;;5091423;28;20116;-68
2022/07/13 06:21:09;;;;;;;7.63;6.30;;;;;;;;;;5088401;28;20586;-69
2022/07/13 06:23:35;;;;;;;10.48;6.68;;;;;;;;;;5090243;28;20135;-68
2022/07/13 06:26:02;;;;;;;9.63;6.55;;;;;;;;;;5090706;28;20056;-69
2022/07/13 06:28:28;;;;;;;9.20;6.72;;;;;;;;;;5092172;28;20053;-69
2022/07/13 06:30:55;;;;;;;8.20;5.90;;;;;;;;;;5091349;28;20072;-69
2022/07/13 06:33:22;;;;;;;13.02;5.47;;;;;;;;;;5091330;28;20052;-66
2022/07/13 06:35:48;;;;;;;6.22;5.60;;;;;;;;;;5071462;28;20873;-65
2022/07/13 06:38:15;;;;;;;10.35;6.65;;;;;;;;;;5087752;28;20132;-67
2022/07/13 06:40:41;;;;;;;9.48;5.63;;;;;;;;;;5091739;28;20044;-67
2022/07/13 06:43:07;;;;;;;8.35;5.45;;;;;;;;;;5090256;28;20052;-67
2022/07/13 06:45:34;;;;;;;7.72;5.78;;;;;;;;;;5090356;28;20056;-66
2022/07/13 06:48:00;;;;;;;6.70;5.10;;;;;;;;;;5094973;28;20036;-66
2022/07/13 06:50:27;;;;;;;8.77;4.78;;;;;;;;;;5091604;28;20091;-66
2022/07/13 06:52:53;;;;;;;11.23;6.10;;;;;;;;;;5094045;28;20049;-66
2022/07/13 06:55:20;;;;;;;9.52;5.82;;;;;;;;;;5080585;28;20458;-65
2022/07/13 06:57:46;;;;;;;8.55;5.75;;;;;;;;;;5091169;28;20583;-66
2022/07/13 07:00:13;;;;;;;10.88;5.32;;;;;;;;;;5091462;28;20235;-67
2022/07/13 07:02:40;;;;;;;9.50;6.35;;;;;;;;;;5092039;28;20056;-66
2022/07/13 07:05:09;;;;;;;7.45;5.85;;;;;;;;;;5083116;28;20048;-65
2022/07/13 07:07:36;;;;;;;9.32;5.35;;;;;;;;;;5080837;28;20049;-66
2022/07/13 07:10:02;;;;;;;9.68;5.60;;;;;;;;;;5091738;28;20057;-66
2022/07/13 07:12:29;;;;;;;11.95;5.88;;;;;;;;;;5094389;28;20052;-65
2022/07/13 07:14:55;;;;;;;7.35;5.45;;;;;;;;;;5093960;28;20044;-65
2022/07/13 07:17:21;;;;;;;8.18;5.28;;;;;;;;;;5094396;28;20052;-66
2022/07/13 07:19:48;;;;;;;9.40;5.43;;;;;;;;;;5095371;28;20067;-68
2022/07/13 07:22:14;;;;;;;8.68;5.70;;;;;;;;;;5094687;28;20059;-67
2022/07/13 07:24:41;;;;;;;11.43;5.63;;;;;;;;;;5093809;28;20056;-66
2022/07/13 07:27:09;;;;;;;5.88;5.20;;;;;;;;;;5094750;28;20518;-66
2022/07/13 07:29:36;;;;;;;6.35;5.05;;;;;;;;;;5094800;28;20056;-66
2022/07/13 07:32:02;;;;;;;10.57;5.40;;;;;;;;;;5094126;28;20076;-66
2022/07/13 07:34:30;;;;;;;7.35;5.25;;;;;;;;;;5094064;28;20052;-66
2022/07/13 07:36:56;;;;;;;6.95;5.40;;;;;;;;;;5089608;28;20079;-67
2022/07/13 07:39:23;;;;;;;11.13;6.50;;;;;;;;;;5074899;28;20053;-65
2022/07/13 07:41:50;;;;;;;9.13;6.47;;;;;;;;;;5095278;28;20080;-67
2022/07/13 07:44:18;;;;;;;8.27;5.72;;;;;;;;;;5092171;28;20059;-66
2022/07/13 07:46:51;;;;;;;8.32;6.43;;;;;;;;;;5094727;28;20041;-67
2022/07/13 07:49:17;;;;;;;10.45;6.20;;;;;;;;;;5106337;28;20487;-66
2022/07/13 07:51:44;;;;;;;6.78;5.55;;;;;;;;;;5094279;28;20063;-67
2022/07/13 07:54:30;;;;;;;8.27;5.57;;;;;;;;;;5093364;28;20052;-66
2022/07/13 07:56:57;;;;;;;9.70;5.85;;;;;;;;;;5094186;28;20497;-65
2022/07/13 07:59:24;;;;;;;9.85;5.22;;;;;;;;;;5094489;28;20135;-67
2022/07/13 08:01:50;;;;;;;7.22;5.57;;;;;;;;;;5093836;28;20048;-64
2022/07/13 08:04:17;;;;;;;8.23;4.70;;;;;;;;;;5109902;28;20049;-64
2022/07/13 08:06:43;;;;;;;6.80;5.47;;;;;;;;;;5094218;28;20049;-65
2022/07/13 08:09:09;;;;;;;7.05;4.82;;;;;;;;;;5093965;28;20056;-65
2022/07/13 08:11:36;;;;;;;7.30;4.85;;;;;;;;;;5093459;28;20139;-65
2022/07/13 08:14:02;;;;;;;6.25;4.18;;;;;;;;;;5092254;28;20103;-65
2022/07/13 08:16:28;;;;;;;8.30;4.90;;;;;;;;;;5092555;28;20063;-64
2022/07/13 08:18:55;;;;;;;8.80;5.25;;;;;;;;;;5093158;28;20991;-65
2022/07/13 08:21:41;;;;;;;7.03;4.90;;;;;;;;;;5093391;28;20127;-67
2022/07/13 08:24:07;;;;;;;9.60;4.30;;;;;;;;;;5093374;28;20057;-68
2022/07/13 08:26:35;;;;;;;6.80;4.32;;;;;;;;;;5091077;28;20140;-65
2022/07/13 08:29:02;;;;;;;5.40;4.13;;;;;;;;;;5093786;28;20052;-67
2022/07/13 08:31:28;;;;;;;6.50;4.38;;;;;;;;;;5093427;28;20567;-66
2022/07/13 08:39:26;;;;;;;7.40;3.58;;;;;;;;;;5094185;28;20056;-63
2022/07/13 08:41:55;;;;;;;6.47;3.65;;;;;;;;;;5092221;28;20147;-67
2022/07/13 08:44:21;;;;;;;8.07;3.63;;;;;;;;;;5091932;28;20427;-64
2022/07/13 08:46:49;;;;;;;5.97;3.70;;;;;;;;;;5093555;28;20062;-67
2022/07/13 08:49:15;;;;;;;6.78;3.78;;;;;;;;;;5093672;28;20059;-66
2022/07/13 08:51:43;;;;;;;6.93;3.33;;;;;;;;;;5093376;28;20515;-66
2022/07/13 08:54:09;;;;;;;6.75;3.53;;;;;;;;;;5092966;28;20051;-66
2022/07/13 08:56:36;;;;;;;7.80;4.00;;;;;;;;;;5096335;28;20064;-64
2022/07/13 08:59:02;;;;;;;6.50;3.70;;;;;;;;;;5093266;28;20509;-65
2022/07/13 09:01:28;;;;;;;4.18;3.05;;;;;;;;;;5092985;28;20446;-65
2022/07/13 09:03:55;;;;;;;8.60;3.58;;;;;;;;;;5092108;28;20057;-66
2022/07/13 09:06:39;;;;;;;8.90;4.18;;;;;;;;;;5091215;28;20609;-67
2022/07/13 09:09:06;;;;;;;6.50;3.42;;;;;;;;;;5092264;28;20102;-66
2022/07/13 09:11:34;;;;;;;5.28;3.47;;;;;;;;;;5092752;28;20052;-65
2022/07/13 09:14:00;;;;;;;3.92;3.25;;;;;;;;;;5091652;28;20124;-67
2022/07/13 09:16:27;;;;;;;4.82;2.80;;;;;;;;;;5091869;28;20091;-66
2022/07/13 09:18:55;;;;;;;5.43;2.65;;;;;;;;;;5092964;28;20052;-67
2022/07/13 09:21:30;;;;;;;14.57;2.60;;;;;;;;;;5111569;28;20460;-66
2022/07/13 09:23:57;;;;;;;6.05;2.40;;;;;;;;;;5106339;27;20056;-67
2022/07/13 09:26:38;;;;;;;12.80;2.60;;;;;;;;;;5093557;28;20059;-65
2022/07/13 09:29:05;;;;;;;4.68;2.40;;;;;;;;;;5093775;28;20055;-64
2022/07/13 09:31:48;;;;;;;5.13;2.42;;;;;;;;;;5113584;27;20476;-65
2022/07/13 09:34:15;;;;;;;3.38;2.20;;;;;;;;;;5103083;27;20566;-64
2022/07/13 09:36:44;;;;;;;6.95;2.50;;;;;;;;;;5084994;28;20543;-64
2022/07/13 09:39:10;;;;;;;4.40;2.15;;;;;;;;;;5092852;28;20518;-65
2022/07/13 09:41:37;;;;;;;6.55;2.03;;;;;;;;;;5093141;28;20048;-63
2022/07/13 09:46:52;;;;;;;5.80;2.22;;;;;;;;;;5093132;28;20171;-62
2022/07/13 09:49:19;;;;;;;5.20;1.80;;;;;;;;;;5091851;28;20083;-64
2022/07/13 09:51:53;;;;;;;5.68;2.08;;;;;;;;;;5086151;28;20148;-65
2022/07/13 09:54:20;;;;;;;2.38;1.65;;;;;;;;;;5089442;28;20060;-64
2022/07/13 09:56:51;;;;;;;5.88;2.10;;;;;;;;;;5091949;28;20053;-65
2022/07/13 09:59:18;;;;;;;5.32;1.83;;;;;;;;;;5091852;28;20140;-64
2022/07/13 10:01:45;;;;;;;5.60;2.03;;;;;;;;;;5092521;28;20433;-65
2022/07/13 10:04:12;;;;;;;2.97;1.65;;;;;;;;;;5091529;28;20048;-65
2022/07/13 10:06:59;;;;;;;3.35;1.73;;;;;;;;;;5092662;27;20048;-66
2022/07/13 10:09:27;;;;;;;5.78;1.98;;;;;;;;;;5090802;28;20053;-65
2022/07/13 10:11:54;;;;;;;2.45;1.60;;;;;;;;;;5092087;28;20052;-63
2022/07/13 10:14:20;;;;;;;7.13;1.45;;;;;;;;;;5070966;28;20136;-64
2022/07/13 10:16:46;;;;;;;3.40;1.60;;;;;;;;;;5083946;28;20056;-65
2022/07/13 10:19:14;;;;;;;2.47;1.60;;;;;;;;;;5091566;28;20080;-65
2022/07/13 10:21:55;;;;;;;4.25;1.45;;;;;;;;;;5072062;28;20099;-65
2022/07/13 10:24:21;;;;;;;4.60;1.60;;;;;;;;;;5071480;28;20051;-65
2022/07/13 10:26:48;;;;;;;2.60;1.50;;;;;;;;;;5071855;28;20171;-65
2022/07/13 10:29:15;;;;;;;2.38;1.73;;;;;;;;;;5079934;28;20060;-65
2022/07/13 10:31:42;;;;;;;5.07;1.77;;;;;;;;;;5071715;28;20099;-66
2022/07/13 10:34:10;;;;;;;3.33;1.60;;;;;;;;;;5072090;28;20053;-65
2022/07/13 10:36:51;;;;;;;1.70;1.60;;;;;;;;;;5072212;28;20132;-65
2022/07/13 10:39:21;;;;;;;7.28;1.80;;;;;;;;;;5080358;28;20106;-64
2022/07/13 10:42:14;;;;;;;3.63;1.65;;;;;;;;;;5091067;28;20056;-64
2022/07/13 10:44:41;;;;;;;2.17;1.67;;;;;;;;;;5078918;28;20048;-66
2022/07/13 10:47:09;;;;;;;6.93;2.10;;;;;;;;;;5091379;28;20135;-65
2022/07/13 10:49:38;;;;;;;2.85;2.00;;;;;;;;;;5091179;28;20529;-64
2022/07/13 10:52:20;;;;;;;3.08;2.25;;;;;;;;;;5091020;28;20087;-64
2022/07/13 10:55:06;;;;;;;2.20;2.00;;;;;;;;;;5091437;28;20506;-65
2022/07/13 10:57:33;;;;;;;10.88;2.50;;;;;;;;;;5091877;28;20049;-65
2022/07/13 11:00:19;;;;;;;3.53;1.95;;;;;;;;;;5091698;28;20084;-67
2022/07/13 11:02:49;;;;;;;3.17;1.60;;;;;;;;;;5071036;28;20053;-67
2022/07/13 11:05:20;;;;;;;3.22;1.75;;;;;;;;;;5070664;28;20075;-66
2022/07/13 11:07:48;;;;;;;3.42;1.50;;;;;;;;;;5071394;28;20064;-66
2022/07/13 11:10:19;;;;;;;3.65;1.73;;;;;;;;;;5073087;28;20052;-67
2022/07/13 11:13:17;;;;;;;8.38;2.20;;;;;;;;;;5091523;28;20496;-65
2022/07/13 11:15:43;;;;;;;3.17;1.65;;;;;;;;;;5089848;28;20053;-65
2022/07/13 11:18:27;;;;;;;2.72;2.05;;;;;;;;;;5090286;28;20080;-67
2022/07/13 11:21:14;;;;;;;1.90;1.52;;;;;;;;;;5090913;28;20140;-67
2022/07/13 11:26:29;;;;;;;3.92;2.13;;;;;;;;;;5070520;28;20071;-67
2022/07/13 11:29:01;;;;;;;3.88;1.80;;;;;;;;;;5070717;28;20053;-67
2022/07/13 11:31:27;;;;;;;2.10;1.80;;;;;;;;;;5081439;28;20053;-67
2022/07/13 11:33:54;;;;;;;2.47;2.00;;;;;;;;;;5089793;28;20522;-67
2022/07/13 11:36:24;;;;;;;7.60;2.30;;;;;;;;;;5074478;28;20516;-66
2022/07/13 11:38:58;;;;;;;3.95;2.17;;;;;;;;;;5098983;28;20563;-66
2022/07/13 11:41:24;;;;;;;3.28;1.90;;;;;;;;;;5091002;28;20139;-65
2022/07/13 11:43:53;;;;;;;4.72;2.00;;;;;;;;;;5089529;28;20052;-66
2022/07/13 11:46:23;;;;;;;2.80;1.70;;;;;;;;;;5090625;28;20076;-65
2022/07/13 11:49:05;;;;;;;3.45;2.00;;;;;;;;;;5090835;28;20052;-66
2022/07/13 11:51:32;;;;;;;4.82;1.70;;;;;;;;;;5090463;28;20471;-64
2022/07/13 11:54:09;;;;;;;3.65;2.03;;;;;;;;;;5090767;28;20164;-65
2022/07/13 11:56:45;;;;;;;2.13;1.73;;;;;;;;;;5090802;28;20056;-66
2022/07/13 11:59:11;;;;;;;4.50;1.48;;;;;;;;;;5073753;28;20135;-66
2022/07/13 12:01:38;;;;;;;5.45;1.60;;;;;;;;;;5076704;28;20059;-65
2022/07/13 12:04:05;;;;;;;4.22;1.88;;;;;;;;;;5088958;28;20531;-68
2022/07/13 12:06:32;;;;;;;5.18;2.17;;;;;;;;;;5093736;28;20052;-66
2022/07/13 12:08:58;;;;;;;3.72;2.08;;;;;;;;;;5093620;28;20132;-65
2022/07/13 12:11:28;;;;;;;8.77;2.20;;;;;;;;;;5093733;28;20582;-65
2022/07/13 12:13:54;;;;;;;3.47;1.85;;;;;;;;;;5092821;28;20555;-64
2022/07/13 12:16:21;;;;;;;5.97;2.13;;;;;;;;;;5093640;28;20056;-65
2022/07/13 12:18:57;;;;;;;3.70;1.75;;;;;;;;;;5093322;28;20174;-66
2022/07/13 12:21:23;;;;;;;4.70;2.00;;;;;;;;;;5093436;28;20056;-65
2022/07/13 12:23:51;;;;;;;5.13;2.03;;;;;;;;;;5093765;28;20545;-64
2022/07/13 12:26:17;;;;;;;2.45;1.90;;;;;;;;;;5078383;28;20067;-66
2022/07/13 12:28:44;;;;;;;2.30;1.95;;;;;;;;;;5077546;28;20053;-66
2022/07/13 12:31:10;;;;;;;4.00;1.70;;;;;;;;;;5093512;28;20045;-66
2022/07/13 12:33:42;;;;;;;2.17;1.90;;;;;;;;;;5080532;28;20053;-65
2022/07/13 12:36:09;;;;;;;3.92;1.73;;;;;;;;;;5082294;28;20056;-65
2022/07/13 12:38:51;;;;;;;5.95;2.47;;;;;;;;;;5093503;28;20466;-66
2022/07/13 12:41:42;;;;;;;3.70;1.77;;;;;;;;;;5073053;28;20538;-64
2022/07/13 12:44:09;;;;;;;5.60;1.73;;;;;;;;;;5071745;28;20068;-66
2022/07/13 12:46:45;;;;;;;2.85;1.75;;;;;;;;;;5087786;28;20145;-65
2022/07/13 12:49:12;;;;;;;3.95;1.50;;;;;;;;;;5080130;28;20139;-66
2022/07/13 12:51:49;;;;;;;3.60;1.80;;;;;;;;;;5093791;28;20152;-65
2022/07/13 12:54:16;;;;;;;6.53;3.03;;;;;;;;;;5093053;28;20567;-65
2022/07/13 12:56:52;;;;;;;3.38;1.85;;;;;;;;;;5093243;28;20048;-65
2022/07/13 12:59:22;;;;;;;3.78;2.78;;;;;;;;;;5090619;28;20048;-65
2022/07/13 13:01:49;;;;;;;5.00;2.40;;;;;;;;;;5090102;28;20068;-66
2022/07/13 13:04:17;;;;;;;4.97;3.90;;;;;;;;;;5087139;28;20111;-65
2022/07/13 13:06:45;;;;;;;3.45;2.50;;;;;;;;;;5090598;28;20053;-64
2022/07/13 13:09:13;;;;;;;5.40;2.05;;;;;;;;;;5077906;28;20059;-64
2022/07/13 13:11:40;;;;;;;3.25;2.38;;;;;;;;;;5093573;28;20052;-64
2022/07/13 13:14:07;;;;;;;5.30;2.65;;;;;;;;;;5091949;28;20522;-65
2022/07/13 13:16:33;;;;;;;5.60;2.40;;;;;;;;;;5089249;28;20049;-65
2022/07/13 13:19:01;;;;;;;2.65;1.80;;;;;;;;;;5073502;28;20049;-66
2022/07/13 13:21:27;;;;;;;6.03;2.10;;;;;;;;;;5082161;28;20056;-68
2022/07/13 13:23:55;;;;;;;5.95;2.83;;;;;;;;;;5085645;28;20515;-67
2022/07/13 13:26:21;;;;;;;5.50;2.40;;;;;;;;;;5083913;28;20065;-67
2022/07/13 13:31:52;;;;;;;3.45;2.10;;;;;;;;;;5095046;28;20048;-66
2022/07/13 13:34:19;;;;;;;3.15;2.10;;;;;;;;;;5085943;28;20172;-66
2022/07/13 13:36:46;;;;;;;3.30;1.83;;;;;;;;;;5079876;28;20055;-66
2022/07/13 13:39:13;;;;;;;5.18;1.75;;;;;;;;;;5083754;28;20055;-66
2022/07/13 13:41:39;;;;;;;4.15;1.33;;;;;;;;;;5092612;28;20172;-66
2022/07/13 13:44:05;;;;;;;5.15;2.00;;;;;;;;;;5089360;28;20137;-65
2022/07/13 13:46:32;;;;;;;2.72;1.60;;;;;;;;;;5087089;28;20048;-65
2022/07/13 13:48:59;;;;;;;4.95;1.70;;;;;;;;;;5091368;28;20048;-65
2022/07/13 13:51:26;;;;;;;2.35;1.58;;;;;;;;;;5091209;28;20052;-65
2022/07/13 13:54:13;;;;;;;3.20;1.70;;;;;;;;;;5089809;28;20474;-65
2022/07/13 13:56:40;;;;;;;2.97;1.80;;;;;;;;;;5083724;28;20060;-66
2022/07/13 13:59:06;;;;;;;6.93;1.85;;;;;;;;;;5086645;28;20147;-67
2022/07/13 14:01:33;;;;;;;9.60;2.20;;;;;;;;;;5091670;28;20058;-65
2022/07/13 14:03:59;;;;;;;1.80;1.55;;;;;;;;;;5091271;28;20463;-64
2022/07/13 14:06:26;;;;;;;4.68;1.80;;;;;;;;;;5088602;28;20055;-64
2022/07/13 14:08:52;;;;;;;3.10;1.67;;;;;;;;;;5085993;28;20052;-64
2022/07/13 14:11:18;;;;;;;6.78;2.10;;;;;;;;;;5091621;28;20048;-64
2022/07/13 14:13:55;;;;;;;3.78;2.38;;;;;;;;;;5093774;28;20106;-65
2022/07/13 14:16:23;;;;;;;5.38;2.10;;;;;;;;;;5091595;28;20127;-65
2022/07/13 14:18:49;;;;;;;3.70;2.67;;;;;;;;;;5090454;28;20535;-64
2022/07/13 14:21:16;;;;;;;6.68;4.13;;;;;;;;;;5089844;28;20078;-64
2022/07/13 14:23:42;;;;;;;7.82;5.55;;;;;;;;;;5086378;28;20048;-66
2022/07/13 14:26:27;;;;;;;6.45;3.60;;;;;;;;;;5090366;28;20060;-64
2022/07/13 14:28:53;;;;;;;11.02;9.88;;;;;;;;;;5090448;28;20551;-64
2022/07/13 14:31:20;;;;;;;10.30;9.25;;;;;;;;;;5087070;28;20568;-64
2022/07/13 14:33:46;;;;;;;7.10;4.68;;;;;;;;;;5095155;28;20060;-64
2022/07/13 14:36:13;;;;;;;14.75;6.40;;;;;;;;;;5091375;28;20099;-64
2022/07/13 14:38:39;;;;;;;9.65;5.60;;;;;;;;;;5089081;28;20510;-66
2022/07/13 14:41:11;;;;;;;7.03;3.17;;;;;;;;;;5089422;28;20056;-63
2022/07/13 14:43:37;;;;;;;5.03;3.10;;;;;;;;;;5089759;28;20052;-65
2022/07/13 14:46:04;;;;;;;8.25;4.95;;;;;;;;;;5090846;28;20452;-64
2022/07/13 14:48:31;;;;;;;10.77;3.95;;;;;;;;;;5092145;28;20206;-64
2022/07/13 14:51:17;;;;;;;6.15;2.40;;;;;;;;;;5085558;28;20191;-65
2022/07/13 14:53:47;;;;;;;3.47;2.80;;;;;;;;;;5085190;28;20539;-65
2022/07/13 14:56:13;;;;;;;11.77;2.85;;;;;;;;;;5086721;28;20562;-66
2022/07/13 14:58:40;;;;;;;8.90;2.70;;;;;;;;;;5088466;28;20132;-65